createdAt,value
2019-05-25T00:04:51.051Z,3.43
2019-05-25T00:09:55.162Z,3.33
2019-05-25T00:14:59.028Z,3.53
2019-05-25T00:20:02.958Z,3.33
2019-05-25T00:25:07.692Z,2.63
2019-05-25T00:30:11.708Z,2.40
2019-05-25T00:35:15.878Z,2.10
2019-05-25T00:40:20.075Z,2.10
2019-05-25T00:45:25.165Z,2.40
2019-05-25T00:50:29.350Z,2.23
2019-05-25T00:55:33.870Z,2.20
2019-05-25T01:00:38.156Z,2.30
2019-05-25T01:05:42.447Z,1.92
2019-05-25T01:10:46.665Z,2.00
2019-05-25T01:15:50.846Z,2.10
2019-05-25T01:20:55.786Z,1.97
2019-05-25T01:25:59.988Z,1.90
2019-05-25T01:31:03.983Z,2.30
2019-05-25T01:36:07.884Z,2.20
2019-05-25T01:41:12.070Z,2.10
2019-05-25T01:46:15.935Z,2.10
2019-05-25T01:51:19.798Z,2.43
2019-05-25T01:56:23.650Z,2.40
2019-05-25T02:01:27.521Z,2.60
2019-05-25T02:06:32.143Z,2.30
2019-05-25T02:11:36.081Z,2.60
2019-05-25T02:16:40.266Z,2.70
2019-05-25T02:21:44.556Z,3.13
2019-05-25T02:26:49.040Z,2.70
2019-05-25T02:31:53.097Z,2.63
2019-05-25T02:36:56.968Z,2.80
2019-05-25T02:42:02.203Z,2.70
2019-05-25T02:47:06.483Z,2.83
2019-05-25T02:52:10.782Z,2.83
2019-05-25T02:57:15.067Z,2.70
2019-05-25T03:02:19.020Z,2.97
2019-05-25T03:07:23.767Z,2.90
2019-05-25T03:12:29.804Z,3.00
2019-05-25T03:17:34.318Z,3.17
2019-05-25T03:22:38.602Z,3.27
2019-05-25T03:27:42.802Z,2.90
2019-05-25T03:32:47.867Z,3.20
2019-05-25T03:37:52.065Z,3.33
2019-05-25T03:42:56.075Z,3.20
2019-05-25T03:48:00.207Z,3.50
2019-05-25T03:53:04.751Z,3.77
2019-05-25T03:58:09.390Z,3.60
2019-05-25T04:03:13.675Z,3.93
2019-05-25T04:08:18.327Z,3.70
2019-05-25T04:13:22.858Z,3.93
2019-05-25T04:18:27.159Z,3.67
2019-05-25T04:23:31.390Z,4.50
2019-05-25T04:28:35.926Z,4.00
2019-05-25T04:33:39.878Z,4.37
2019-05-25T04:38:44.114Z,4.03
2019-05-25T04:43:48.571Z,4.40
2019-05-25T04:48:52.762Z,4.53
2019-05-25T04:53:57.320Z,4.90
2019-05-25T04:59:01.616Z,4.97
2019-05-25T05:04:05.666Z,5.13
2019-05-25T05:09:09.898Z,5.03
2019-05-25T05:14:14.827Z,5.60
2019-05-25T05:19:18.844Z,5.70
2019-05-25T05:24:22.949Z,6.00
2019-05-25T05:29:27.078Z,6.27
2019-05-25T05:34:31.456Z,5.70
2019-05-25T05:39:36.047Z,6.10
2019-05-25T05:44:41.156Z,6.90
2019-05-25T05:49:46.499Z,6.63
2019-05-25T05:54:52.222Z,6.73
2019-05-25T05:59:58.031Z,7.30
2019-05-25T06:05:02.957Z,6.80
2019-05-25T06:10:08.008Z,6.90
2019-05-25T06:15:12.634Z,7.17
2019-05-25T06:20:16.779Z,7.67
2019-05-25T06:25:21.003Z,7.20
2019-05-25T06:30:25.614Z,6.77
2019-05-25T06:35:29.923Z,7.67
2019-05-25T06:40:33.902Z,7.90
2019-05-25T06:45:38.560Z,8.03
2019-05-25T06:50:42.842Z,7.60
2019-05-25T06:55:46.706Z,7.83
2019-05-25T07:00:50.891Z,7.83
2019-05-25T07:05:54.754Z,7.87
2019-05-25T07:10:58.642Z,7.63
2019-05-25T07:16:02.514Z,7.30
2019-05-25T07:21:08.639Z,7.50
2019-05-25T07:26:12.619Z,7.73
2019-05-25T07:31:16.556Z,7.40
2019-05-25T07:36:20.876Z,6.77
2019-05-25T07:41:24.823Z,7.10
2019-05-25T07:46:29.281Z,7.10
2019-05-25T07:51:33.668Z,7.57
2019-05-25T07:56:37.853Z,6.67
2019-05-25T08:01:42.007Z,7.07
2019-05-25T08:06:45.868Z,6.33
2019-05-25T08:11:50.075Z,5.73
2019-05-25T08:16:54.018Z,6.30
2019-05-25T08:21:58.222Z,6.10
2019-05-25T08:27:02.179Z,7.50
2019-05-25T08:32:06.415Z,7.13
2019-05-25T08:37:10.943Z,7.07
2019-05-25T08:42:15.144Z,6.43
2019-05-25T08:47:19.011Z,7.27
2019-05-25T08:52:23.219Z,8.30
2019-05-25T08:57:27.496Z,8.50
2019-05-25T09:02:31.358Z,7.90
2019-05-25T09:07:35.863Z,8.80
2019-05-25T09:12:39.806Z,9.00
2019-05-25T09:17:44.006Z,9.23
2019-05-25T09:22:47.954Z,9.77
2019-05-25T09:27:51.831Z,10.10
2019-05-25T09:32:56.043Z,10.47
2019-05-25T09:38:00.350Z,11.40
2019-05-25T09:43:04.307Z,11.07
2019-05-25T09:48:08.514Z,10.10
2019-05-25T09:53:13.876Z,11.57
2019-05-25T09:58:18.115Z,11.80
2019-05-25T10:03:24.203Z,11.30
2019-05-25T10:08:28.162Z,12.90
2019-05-25T10:13:32.046Z,12.37
2019-05-25T10:18:36.264Z,12.23
2019-05-25T10:23:40.506Z,13.00
2019-05-25T10:28:44.743Z,13.00
2019-05-25T10:33:48.647Z,9.47
2019-05-25T10:38:52.846Z,11.17
2019-05-25T10:43:56.871Z,11.27
2019-05-25T10:49:01.072Z,9.63
2019-05-25T10:54:04.974Z,9.90
2019-05-25T10:59:09.246Z,9.20
2019-05-25T11:04:13.291Z,9.37
2019-05-25T11:09:18.220Z,8.67
2019-05-25T11:14:22.758Z,8.77
2019-05-25T11:19:26.963Z,9.07
2019-05-25T11:24:30.826Z,8.47
2019-05-25T11:29:35.027Z,8.53
2019-05-25T11:34:39.315Z,8.23
2019-05-25T11:39:43.490Z,8.60
2019-05-25T11:44:47.619Z,8.37
2019-05-25T11:49:51.656Z,8.50
2019-05-25T11:54:55.519Z,9.23
2019-05-25T11:59:59.387Z,9.10
2019-05-25T12:05:07.663Z,8.90
2019-05-25T12:10:12.132Z,11.40
2019-05-25T12:15:16.071Z,11.90
2019-05-25T12:20:21.113Z,13.80
2019-05-25T12:25:26.043Z,13.08
2019-05-25T12:30:40.342Z,12.87
2019-05-25T12:35:36.259Z,13.13
2019-05-25T12:40:52.770Z,14.57
2019-05-25T12:45:45.854Z,14.07
2019-05-25T12:50:49.735Z,14.77
2019-05-25T12:55:53.619Z,14.77
2019-05-25T13:00:57.490Z,13.47
2019-05-25T13:06:02.530Z,13.07
2019-05-25T13:11:09.536Z,14.47
2019-05-25T13:16:12.355Z,12.83
2019-05-25T13:21:16.389Z,13.43
2019-05-25T13:26:20.686Z,11.60
2019-05-25T13:31:24.643Z,12.63
2019-05-25T13:36:28.850Z,10.73
2019-05-25T13:41:32.810Z,10.77
2019-05-25T13:46:36.682Z,11.60
2019-05-25T13:51:40.866Z,10.20
2019-05-25T13:56:45.074Z,9.40
2019-05-25T14:01:49.334Z,9.70
2019-05-25T14:06:53.779Z,9.00
2019-05-25T14:11:58.072Z,8.63
2019-05-25T14:17:02.018Z,8.53
2019-05-25T14:22:05.891Z,8.10
2019-05-25T14:27:09.757Z,7.63
2019-05-25T14:32:13.934Z,7.33
2019-05-25T14:37:17.796Z,7.40
2019-05-25T14:42:22.233Z,6.43
2019-05-25T14:47:26.191Z,6.40
2019-05-25T14:52:30.055Z,6.17
2019-05-25T14:57:33.976Z,5.77
2019-05-25T15:02:37.888Z,5.60
2019-05-25T15:07:42.051Z,5.23
2019-05-25T15:12:46.150Z,3.80
2019-05-25T15:17:50.328Z,4.43
2019-05-25T15:22:54.515Z,3.70
2019-05-25T15:27:58.795Z,3.40
2019-05-25T15:33:03.343Z,3.30
2019-05-25T15:38:07.571Z,2.83
2019-05-25T15:43:11.443Z,2.77
2019-05-25T15:48:16.562Z,3.50
2019-05-25T15:53:20.423Z,3.17
2019-05-25T15:58:24.294Z,2.77
2019-05-25T16:03:28.495Z,3.20
2019-05-25T16:08:32.842Z,3.53
2019-05-25T16:13:36.814Z,3.60
2019-05-25T16:18:40.674Z,3.37
2019-05-25T16:23:44.556Z,3.07
2019-05-25T16:28:48.443Z,2.77
2019-05-25T16:33:52.556Z,2.90
2019-05-25T16:38:56.419Z,3.13
2019-05-25T16:44:00.630Z,3.20
2019-05-25T16:49:04.491Z,3.37
2019-05-25T16:54:08.402Z,3.20
2019-05-25T16:59:12.907Z,2.90
2019-05-25T17:04:17.966Z,3.20
2019-05-25T17:09:21.830Z,3.30
2019-05-25T17:14:25.703Z,3.30
2019-05-25T17:19:29.984Z,3.40
2019-05-25T17:24:34.279Z,3.10
2019-05-25T17:29:38.258Z,3.30
2019-05-25T17:34:42.117Z,3.00
2019-05-25T17:39:46.315Z,3.10
2019-05-25T17:44:50.359Z,3.27
2019-05-25T17:49:54.647Z,3.20
2019-05-25T17:54:59.197Z,3.30
2019-05-25T18:00:04.632Z,3.50
2019-05-25T18:05:10.547Z,3.70
2019-05-25T18:10:15.296Z,3.53
2019-05-25T18:15:19.642Z,3.57
2019-05-25T18:20:23.973Z,3.40
2019-05-25T18:25:28.096Z,3.20
2019-05-25T18:30:33.833Z,3.20
2019-05-25T18:35:38.702Z,3.30
2019-05-25T18:40:43.155Z,3.30
2019-05-25T18:45:47.344Z,3.30
2019-05-25T18:50:52.550Z,3.80
2019-05-25T18:55:56.428Z,3.27
2019-05-25T19:01:00.621Z,3.57
2019-05-25T19:06:04.632Z,3.50
2019-05-25T19:11:09.159Z,3.67
2019-05-25T19:16:13.128Z,3.57
2019-05-25T19:21:17.008Z,3.43
2019-05-25T19:26:20.967Z,3.53
2019-05-25T19:31:25.093Z,3.10
2019-05-25T19:36:29.302Z,3.10
2019-05-25T19:41:33.272Z,3.33
2019-05-25T19:46:37.399Z,2.90
2019-05-25T19:51:41.282Z,3.43
2019-05-25T19:56:45.490Z,3.50
2019-05-25T20:01:49.690Z,3.93
2019-05-25T20:06:53.978Z,3.90
2019-05-25T20:11:58.262Z,4.10
2019-05-25T20:17:02.499Z,4.20
2019-05-25T20:22:09.146Z,4.90
2019-05-25T20:27:12.687Z,4.70
2019-05-25T20:32:16.957Z,5.10
2019-05-25T20:37:21.479Z,5.17
2019-05-25T20:42:25.429Z,5.30
2019-05-25T20:47:29.303Z,5.40
2019-05-25T20:52:33.182Z,5.53
2019-05-25T20:57:37.419Z,6.10
2019-05-25T21:02:41.612Z,5.80
2019-05-25T21:07:45.575Z,6.33
2019-05-25T21:12:49.886Z,5.70
2019-05-25T21:17:54.177Z,5.97
2019-05-25T21:22:58.157Z,6.47
2019-05-25T21:28:02.323Z,5.73
2019-05-25T21:33:06.947Z,5.90
2019-05-25T21:38:11.150Z,6.23
2019-05-25T21:43:15.069Z,6.20
2019-05-25T21:48:20.135Z,6.60
2019-05-25T21:53:25.213Z,6.50
2019-05-25T21:58:29.365Z,6.17
2019-05-25T22:03:33.597Z,6.10
2019-05-25T22:08:38.950Z,6.20
2019-05-25T22:13:42.910Z,6.40
2019-05-25T22:18:47.114Z,6.17
2019-05-25T22:23:51.300Z,6.47
2019-05-25T22:28:55.167Z,5.90
2019-05-25T22:33:59.560Z,6.03
2019-05-25T22:39:05.207Z,6.60
2019-05-25T22:44:09.051Z,6.70
2019-05-25T22:49:13.269Z,6.87
2019-05-25T22:54:18.502Z,6.90
2019-05-25T22:59:23.056Z,6.70
2019-05-25T23:04:26.999Z,6.77
2019-05-25T23:09:30.864Z,6.50
2019-05-25T23:14:34.714Z,6.50
2019-05-25T23:19:38.837Z,6.70
2019-05-25T23:24:43.015Z,6.07
2019-05-25T23:29:47.211Z,6.80
2019-05-25T23:34:51.516Z,6.10
2019-05-25T23:39:55.460Z,6.70
2019-05-25T23:44:59.319Z,6.20
2019-05-25T23:50:04.246Z,6.00
2019-05-25T23:55:08.303Z,6.33
